Time;durP1;ratioP1;P1;durP2;ratioP2;P2;SDS_P1;SDS_P2;PMS_P1;PMS_P2;Temp;Humidity;BMP_temperature;BMP_pressure;BME280_temperature;BME280_humidity;BME280_pressure;Samples;Min_cycle;Max_cycle;Signal;HPM_P1;HPM_P2
2022/01/25 00:10:00;;;;;;;100.97;27.88;;;2.20;99.90;;;;;;5138771;28;20097;-93
2022/01/25 00:29:05;;;;;;;90.55;24.42;;;2.20;99.90;;;;;;5127430;28;20028;-94
2022/01/25 00:31:36;;;;;;;84.15;25.55;;;2.20;99.90;;;;;;5120348;28;20043;-94
2022/01/25 00:34:02;;;;;;;97.18;28.02;;;2.20;99.90;;;;;;5107183;28;20115;-93
2022/01/25 00:36:29;;;;;;;83.93;25.83;;;2.20;99.90;;;;;;5106646;28;20078;-93
2022/01/25 00:38:57;;;;;;;92.55;27.30;;;2.20;99.90;;;;;;5106444;28;20024;-92
2022/01/25 00:41:24;;;;;;;86.88;24.27;;;2.10;99.90;;;;;;5106394;28;20026;-95
2022/01/25 00:43:51;;;;;;;90.10;26.65;;;2.10;99.90;;;;;;5102785;28;20506;-93
2022/01/25 00:46:20;;;;;;;95.22;24.55;;;2.10;99.90;;;;;;5098232;28;20070;-93
2022/01/25 00:48:50;;;;;;;85.68;24.95;;;2.10;99.90;;;;;;5098324;28;20035;-93
2022/01/25 00:56:46;;;;;;;93.38;24.90;;;2.00;99.90;;;;;;5118550;28;20027;-93
2022/01/25 00:59:20;;;;;;;87.22;24.92;;;1.90;99.90;;;;;;5103021;28;20020;-94
2022/01/25 01:01:47;;;;;;;89.55;23.58;;;1.90;99.90;;;;;;5106819;28;20420;-94
2022/01/25 01:04:16;;;;;;;81.07;22.45;;;2.00;99.90;;;;;;5111030;28;20046;-96
2022/01/25 01:06:46;;;;;;;76.03;21.90;;;2.00;99.90;;;;;;5112031;28;20019;-95
2022/01/25 01:09:15;;;;;;;70.22;19.38;;;2.00;99.90;;;;;;5112306;28;20030;-94
2022/01/25 01:12:44;;;;;;;87.30;23.83;;;2.00;99.90;;;;;;5127162;28;20023;-94
2022/01/25 01:31:24;;;;;;;79.38;23.92;;;2.10;99.90;;;;;;5050017;28;20061;-93
2022/01/25 01:34:21;;;;;;;72.07;22.70;;;2.10;99.90;;;;;;5034488;28;20021;-93
2022/01/25 01:48:08;;;;;;;65.03;20.88;;;2.10;99.90;;;;;;5049589;28;20044;-93
2022/01/25 01:50:36;;;;;;;83.18;25.48;;;2.10;99.90;;;;;;5033363;28;20034;-93
2022/01/25 01:53:05;;;;;;;80.25;23.35;;;2.10;99.90;;;;;;5032926;28;20106;-93
2022/01/25 01:55:34;;;;;;;71.22;23.40;;;2.10;99.90;;;;;;5034130;28;20042;-93
2022/01/25 01:58:01;;;;;;;86.00;27.10;;;2.10;99.90;;;;;;5094214;28;20039;-92
2022/01/25 02:00:36;;;;;;;85.15;26.73;;;2.10;99.90;;;;;;5093388;28;20089;-94
2022/01/25 02:03:02;;;;;;;81.82;24.33;;;2.10;99.90;;;;;;5093704;28;20024;-93
2022/01/25 02:05:29;;;;;;;78.57;26.58;;;2.10;99.90;;;;;;5094909;28;20074;-94
2022/01/25 02:07:55;;;;;;;85.07;27.00;;;2.00;99.90;;;;;;5085549;28;20073;-94
2022/01/25 02:10:21;;;;;;;84.85;28.92;;;2.10;99.90;;;;;;5089700;28;20024;-94
2022/01/25 02:12:52;;;;;;;88.22;26.38;;;2.10;99.90;;;;;;5090361;28;20035;-94
2022/01/25 02:15:25;;;;;;;76.38;25.08;;;2.10;99.90;;;;;;5108968;28;20027;-93
2022/01/25 02:23:18;;;;;;;71.82;22.58;;;2.10;99.90;;;;;;5113489;28;20038;-95
2022/01/25 02:25:46;;;;;;;62.08;19.38;;;2.00;99.90;;;;;;5093106;28;20123;-93
2022/01/25 02:28:15;;;;;;;61.03;19.02;;;2.00;99.90;;;;;;5111136;28;20031;-95
2022/01/25 02:30:42;;;;;;;67.03;20.65;;;2.00;99.90;;;;;;5078817;28;20126;-95
2022/01/25 02:33:11;;;;;;;55.53;19.27;;;2.00;99.90;;;;;;5112765;28;20039;-94
2022/01/25 02:35:43;;;;;;;71.90;20.05;;;2.00;99.90;;;;;;5095921;28;20071;-95
2022/01/25 02:38:14;;;;;;;70.15;21.27;;;1.90;99.90;;;;;;5111375;28;20047;-95
2022/01/25 02:40:59;;;;;;;61.65;19.40;;;2.00;99.90;;;;;;5114040;28;20078;-95
2022/01/25 02:43:34;;;;;;;67.20;20.08;;;1.90;99.90;;;;;;5079715;28;20040;-95
2022/01/25 02:49:04;;;;;;;67.60;20.33;;;2.00;99.90;;;;;;5115642;28;20024;-95
2022/01/25 02:51:42;;;;;;;65.57;18.58;;;2.00;99.90;;;;;;5115056;28;20048;-95
2022/01/25 02:54:16;;;;;;;62.45;19.67;;;2.00;99.90;;;;;;5082679;28;20016;-94
2022/01/25 02:56:47;;;;;;;55.50;19.15;;;2.00;99.90;;;;;;5099364;28;20203;-94
2022/01/25 02:59:18;;;;;;;68.25;19.13;;;2.00;99.90;;;;;;5101640;28;20012;-95
2022/01/25 03:01:46;;;;;;;65.15;20.65;;;2.00;99.90;;;;;;5101080;28;20051;-95
2022/01/25 03:04:20;;;;;;;64.65;19.30;;;2.00;99.90;;;;;;5118204;28;20036;-95
2022/01/25 03:06:47;;;;;;;66.88;18.75;;;2.00;99.90;;;;;;5084588;28;20039;-94
2022/01/25 03:09:14;;;;;;;52.67;18.48;;;2.00;99.90;;;;;;5101709;28;20083;-93
2022/01/25 03:11:44;;;;;;;56.78;18.33;;;2.00;99.90;;;;;;5117316;28;20094;-94
2022/01/25 03:14:11;;;;;;;76.53;23.50;;;2.00;99.90;;;;;;5099783;28;20103;-94
2022/01/25 03:17:03;;;;;;;64.63;20.27;;;1.90;99.90;;;;;;5101540;28;20020;-94
2022/01/25 03:22:33;;;;;;;72.10;20.95;;;1.80;99.90;;;;;;5114511;28;20036;-94
2022/01/25 03:25:03;;;;;;;66.32;18.85;;;1.80;99.90;;;;;;5112857;28;20031;-95
2022/01/25 03:27:31;;;;;;;64.00;19.08;;;1.80;99.90;;;;;;5115409;28;20052;-94
2022/01/25 03:30:02;;;;;;;71.13;19.52;;;1.90;99.90;;;;;;5097840;28;20032;-94
2022/01/25 03:32:41;;;;;;;62.80;20.70;;;1.90;99.90;;;;;;5112895;28;20032;-94
2022/01/25 03:35:10;;;;;;;62.35;18.48;;;1.80;99.90;;;;;;5094064;28;20044;-95
2022/01/25 03:37:40;;;;;;;65.78;19.05;;;1.90;99.90;;;;;;5094414;28;20028;-96
2022/01/25 03:40:10;;;;;;;60.95;19.02;;;1.80;99.90;;;;;;5112129;28;20031;-95
2022/01/25 03:42:39;;;;;;;55.00;17.40;;;1.90;99.90;;;;;;5111818;28;20032;-94
2022/01/25 03:45:08;;;;;;;64.63;18.13;;;1.90;99.90;;;;;;5094061;28;20016;-94
2022/01/25 03:47:57;;;;;;;62.70;20.45;;;1.90;99.90;;;;;;5094232;28;20024;-95
2022/01/25 03:50:26;;;;;;;69.85;21.42;;;1.90;99.90;;;;;;5084047;28;20417;-95
2022/01/25 03:52:54;;;;;;;73.78;23.85;;;1.90;99.90;;;;;;5095186;28;20115;-94
2022/01/25 03:55:20;;;;;;;72.70;24.25;;;1.90;99.90;;;;;;5078316;28;20028;-94
2022/01/25 03:57:47;;;;;;;79.50;24.55;;;1.80;99.90;;;;;;5113090;28;20050;-94
2022/01/25 04:00:15;;;;;;;82.88;23.10;;;1.80;99.90;;;;;;5097114;28;20500;-94
2022/01/25 04:02:53;;;;;;;81.43;26.67;;;1.80;99.90;;;;;;5081435;28;20036;-94
2022/01/25 04:05:37;;;;;;;86.78;28.80;;;1.70;99.90;;;;;;5102295;28;20027;-94
2022/01/25 04:08:03;;;;;;;78.07;25.98;;;1.80;99.90;;;;;;5099260;28;20032;-94
2022/01/25 04:10:32;;;;;;;66.07;21.40;;;1.80;99.90;;;;;;5100139;28;20024;-93
2022/01/25 04:12:58;;;;;;;73.38;24.30;;;1.80;99.90;;;;;;5111263;28;20005;-93
2022/01/25 04:15:24;;;;;;;84.50;26.73;;;1.80;99.90;;;;;;5059826;28;20054;-92
2022/01/25 04:18:00;;;;;;;69.40;23.27;;;1.80;99.90;;;;;;5091394;28;20036;-94
2022/01/25 04:20:32;;;;;;;74.05;25.30;;;1.80;99.90;;;;;;5079850;28;20035;-96
2022/01/25 04:25:42;;;;;;;76.20;25.55;;;1.70;99.90;;;;;;5113398;28;20030;-93
2022/01/25 04:28:08;;;;;;;75.80;23.45;;;1.80;99.90;;;;;;5094811;28;20028;-93
2022/01/25 04:30:40;;;;;;;78.88;23.55;;;1.60;99.90;;;;;;5112769;28;20061;-92
2022/01/25 04:33:20;;;;;;;60.72;19.23;;;1.60;99.90;;;;;;5092322;28;20086;-93
2022/01/25 04:49:54;;;;;;;56.53;17.13;;;1.60;99.90;;;;;;5110272;28;20028;-94
2022/01/25 04:52:25;;;;;;;57.97;16.10;;;1.50;99.90;;;;;;5089127;28;20055;-94
2022/01/25 04:55:08;;;;;;;50.72;16.58;;;1.50;99.90;;;;;;5088926;28;20028;-94
2022/01/25 04:57:48;;;;;;;52.30;14.90;;;1.50;99.90;;;;;;5091670;28;20028;-94
2022/01/25 05:00:19;;;;;;;56.40;17.77;;;1.50;99.90;;;;;;5089763;28;20032;-94
2022/01/25 05:02:53;;;;;;;55.13;16.25;;;1.50;99.90;;;;;;5090462;28;20477;-94
2022/01/25 05:05:31;;;;;;;58.83;17.58;;;1.50;99.90;;;;;;5095406;28;20028;-94
2022/01/25 05:10:35;;;;;;;57.55;16.65;;;1.40;99.90;;;;;;5108705;28;20032;-94
2022/01/25 05:18:16;;;;;;;60.13;17.88;;;1.40;99.90;;;;;;5101261;28;20046;-93
2022/01/25 05:23:27;;;;;;;62.97;20.02;;;1.40;99.90;;;;;;5102659;28;20027;-93
2022/01/25 05:25:54;;;;;;;63.53;19.70;;;1.40;99.90;;;;;;5081971;28;20024;-92
2022/01/25 05:28:19;;;;;;;72.78;20.27;;;1.30;99.90;;;;;;5082033;28;20020;-91
2022/01/25 05:30:45;;;;;;;66.70;20.77;;;1.30;99.90;;;;;;5081023;28;20028;-91
2022/01/25 05:33:11;;;;;;;68.65;21.17;;;1.30;99.90;;;;;;5081083;28;20032;-91
2022/01/25 05:35:37;;;;;;;69.70;21.05;;;1.30;99.90;;;;;;5080825;28;20044;-94
2022/01/25 05:38:03;;;;;;;60.78;17.75;;;1.30;99.90;;;;;;5064541;28;20032;-93
2022/01/25 05:46:16;;;;;;;77.10;21.80;;;1.20;99.90;;;;;;5099589;28;20043;-92
2022/01/25 05:48:42;;;;;;;83.63;23.58;;;1.20;99.90;;;;;;5082843;28;20059;-92
2022/01/25 05:51:09;;;;;;;86.15;24.55;;;1.10;99.90;;;;;;5084391;28;20036;-93
2022/01/25 05:53:35;;;;;;;81.85;22.52;;;1.20;99.90;;;;;;5083932;28;20024;-93
2022/01/25 05:56:01;;;;;;;79.03;21.95;;;1.10;99.90;;;;;;5085687;28;20111;-91
2022/01/25 05:58:27;;;;;;;91.65;25.13;;;1.20;99.90;;;;;;5085178;28;20043;-92
2022/01/25 06:00:52;;;;;;;85.60;25.27;;;1.20;99.90;;;;;;5088228;28;20039;-93
2022/01/25 06:03:20;;;;;;;85.22;24.42;;;1.10;99.90;;;;;;5088892;28;20028;-95
2022/01/25 06:05:46;;;;;;;95.15;26.77;;;1.10;99.90;;;;;;5089291;28;20032;-95
2022/01/25 06:08:12;;;;;;;94.50;23.63;;;1.10;99.90;;;;;;5106678;28;20035;-94
2022/01/25 06:10:42;;;;;;;102.28;27.35;;;1.10;99.90;;;;;;5090387;28;20119;-94
2022/01/25 06:13:10;;;;;;;114.18;28.73;;;1.10;99.90;;;;;;5095680;28;20028;-93
2022/01/25 06:15:39;;;;;;;124.43;29.92;;;1.10;99.90;;;;;;5096009;28;20036;-94
2022/01/25 06:18:08;;;;;;;123.43;31.80;;;1.00;99.90;;;;;;5094294;28;20028;-94
2022/01/25 06:20:39;;;;;;;128.18;32.03;;;1.10;99.90;;;;;;5109569;28;20024;-93
2022/01/25 06:23:07;;;;;;;135.15;33.13;;;1.00;99.90;;;;;;5091556;28;20030;-93
2022/01/25 06:25:34;;;;;;;120.35;31.58;;;1.10;99.90;;;;;;5091797;28;20024;-94
2022/01/25 06:28:00;;;;;;;137.65;38.08;;;1.10;99.90;;;;;;5102661;28;20035;-94
2022/01/25 06:30:29;;;;;;;138.77;38.63;;;1.10;99.90;;;;;;5088063;28;20040;-95
2022/01/25 06:32:56;;;;;;;150.13;40.80;;;1.10;99.90;;;;;;5087990;28;20027;-93
2022/01/25 06:35:22;;;;;;;135.00;37.15;;;1.10;99.90;;;;;;5086492;28;20131;-93
2022/01/25 06:37:48;;;;;;;116.10;33.75;;;1.10;99.90;;;;;;5087506;28;20050;-94
2022/01/25 06:40:16;;;;;;;119.85;31.33;;;1.10;99.90;;;;;;5109916;28;20032;-94
2022/01/25 06:42:43;;;;;;;148.30;39.47;;;1.10;99.90;;;;;;5094221;28;20024;-93
2022/01/25 06:45:15;;;;;;;134.95;35.65;;;1.10;99.90;;;;;;5098698;28;20032;-93
2022/01/25 06:47:44;;;;;;;153.27;39.78;;;1.10;99.90;;;;;;5098695;28;20103;-95
2022/01/25 06:50:12;;;;;;;160.23;42.35;;;1.10;99.90;;;;;;5101342;28;20024;-94
2022/01/25 06:52:41;;;;;;;139.10;35.47;;;1.10;99.90;;;;;;5086000;28;20039;-95
2022/01/25 06:55:15;;;;;;;115.47;29.80;;;1.10;99.90;;;;;;5100581;28;20024;-95
2022/01/25 06:57:47;;;;;;;114.95;31.48;;;1.10;99.90;;;;;;5093095;28;20044;-94
2022/01/25 07:00:23;;;;;;;105.95;27.63;;;1.00;99.90;;;;;;5095231;28;20036;-94
2022/01/25 07:02:52;;;;;;;114.55;29.35;;;1.00;99.90;;;;;;5079736;28;20032;-95
2022/01/25 07:05:21;;;;;;;102.38;27.55;;;1.00;99.90;;;;;;5096156;28;20032;-94
2022/01/25 07:07:50;;;;;;;108.70;27.17;;;1.00;99.90;;;;;;5096489;28;20032;-96
2022/01/25 07:10:20;;;;;;;99.80;24.88;;;1.00;99.90;;;;;;5094296;28;20036;-95
2022/01/25 07:12:46;;;;;;;101.47;26.17;;;0.90;99.90;;;;;;5115486;28;20034;-93
2022/01/25 07:15:13;;;;;;;103.95;26.00;;;1.00;99.90;;;;;;5108497;28;20024;-93
2022/01/25 07:17:40;;;;;;;95.68;25.42;;;0.90;99.90;;;;;;5108850;28;20038;-93
2022/01/25 07:20:14;;;;;;;103.03;25.65;;;0.90;99.90;;;;;;5111426;28;20039;-94
2022/01/25 07:22:43;;;;;;;101.63;26.55;;;0.90;99.90;;;;;;5099689;28;20492;-93
2022/01/25 07:25:12;;;;;;;103.20;27.75;;;0.90;99.90;;;;;;5093868;28;20031;-92
2022/01/25 07:27:39;;;;;;;121.50;28.23;;;0.90;99.90;;;;;;5114581;28;20059;-93
2022/01/25 07:30:06;;;;;;;110.47;28.77;;;0.90;99.90;;;;;;5100672;28;20024;-91
2022/01/25 07:32:33;;;;;;;114.15;29.10;;;0.90;99.90;;;;;;5107971;28;20043;-91
2022/01/25 07:35:00;;;;;;;117.45;28.25;;;0.90;99.90;;;;;;5110374;28;20044;-93
2022/01/25 07:37:28;;;;;;;123.07;32.17;;;1.00;99.90;;;;;;5112400;28;20059;-95
2022/01/25 07:39:56;;;;;;;130.45;33.80;;;1.00;99.90;;;;;;5098933;28;20079;-94
2022/01/25 07:42:22;;;;;;;141.68;35.50;;;1.00;99.90;;;;;;5110126;28;20158;-93
2022/01/25 07:44:49;;;;;;;127.80;32.95;;;1.00;99.90;;;;;;5096012;28;20035;-94
2022/01/25 07:47:15;;;;;;;118.07;31.88;;;1.00;99.90;;;;;;5119142;28;20468;-94
2022/01/25 07:49:41;;;;;;;122.32;32.15;;;1.00;99.90;;;;;;5105092;28;20078;-91
2022/01/25 07:52:07;;;;;;;142.43;36.28;;;1.00;99.90;;;;;;5104916;28;20061;-92
2022/01/25 07:54:33;;;;;;;140.57;34.47;;;1.00;99.90;;;;;;5100720;28;20023;-92
2022/01/25 07:56:59;;;;;;;132.32;33.00;;;1.10;99.90;;;;;;5099871;28;20035;-94
2022/01/25 07:59:25;;;;;;;128.68;32.75;;;1.10;99.90;;;;;;5108188;28;20188;-93
2022/01/25 08:01:53;;;;;;;129.98;33.88;;;1.20;99.90;;;;;;5112142;28;20031;-93
2022/01/25 08:04:19;;;;;;;127.28;36.00;;;1.20;99.90;;;;;;5128740;28;20445;-93
2022/01/25 08:06:46;;;;;;;128.27;30.65;;;1.20;99.90;;;;;;5109878;28;20118;-95
2022/01/25 08:09:12;;;;;;;129.02;33.20;;;1.20;99.90;;;;;;5108054;28;20114;-94
2022/01/25 08:11:38;;;;;;;138.45;34.78;;;1.20;99.90;;;;;;5108767;28;20074;-92
2022/01/25 08:14:17;;;;;;;148.13;36.05;;;1.20;99.90;;;;;;5108707;28;20015;-93
2022/01/25 08:16:45;;;;;;;120.20;32.10;;;1.20;99.90;;;;;;5102411;28;20023;-93
2022/01/25 08:19:12;;;;;;;137.35;36.28;;;1.20;99.90;;;;;;5103258;28;20534;-92
2022/01/25 08:21:40;;;;;;;145.43;35.22;;;1.20;99.90;;;;;;5101883;28;20079;-93
2022/01/25 08:24:08;;;;;;;134.55;35.75;;;1.30;99.90;;;;;;5098715;28;20023;-93
2022/01/25 08:26:33;;;;;;;127.47;35.08;;;1.30;99.90;;;;;;5098602;28;20016;-94
2022/01/25 08:29:00;;;;;;;121.03;33.67;;;1.40;99.90;;;;;;5099612;28;20043;-92
2022/01/25 08:31:25;;;;;;;122.00;32.92;;;1.40;99.90;;;;;;5092414;28;20028;-93
2022/01/25 08:33:52;;;;;;;125.55;35.88;;;1.40;99.90;;;;;;5101170;28;20030;-94
2022/01/25 08:36:18;;;;;;;119.20;34.47;;;1.50;99.90;;;;;;5089401;28;20040;-93
2022/01/25 08:38:44;;;;;;;126.15;33.45;;;1.50;99.90;;;;;;5082932;28;20466;-94
2022/01/25 08:41:10;;;;;;;120.40;33.60;;;1.50;99.90;;;;;;5077360;28;20031;-94
2022/01/25 08:43:36;;;;;;;124.55;34.45;;;1.50;99.90;;;;;;5078051;28;20024;-94
2022/01/25 08:46:03;;;;;;;135.15;36.45;;;1.50;99.90;;;;;;5078537;28;20046;-93
2022/01/25 08:48:29;;;;;;;120.30;35.40;;;1.50;99.90;;;;;;5078145;28;20020;-93
2022/01/25 08:50:55;;;;;;;117.97;33.17;;;1.50;99.90;;;;;;5077687;28;20036;-92
2022/01/25 08:53:21;;;;;;;126.03;33.78;;;1.60;99.90;;;;;;5077733;28;20031;-94
2022/01/25 08:55:47;;;;;;;122.10;32.95;;;1.60;99.90;;;;;;5077666;28;20042;-94
2022/01/25 08:58:13;;;;;;;126.43;34.90;;;1.60;99.90;;;;;;5077304;28;20055;-93
2022/01/25 09:00:39;;;;;;;114.00;32.90;;;1.70;99.90;;;;;;5096767;28;20016;-93
2022/01/25 09:03:04;;;;;;;119.88;32.92;;;1.70;99.90;;;;;;5099804;28;20030;-93
2022/01/25 09:05:31;;;;;;;127.93;35.00;;;1.60;99.90;;;;;;5099200;28;20054;-93
2022/01/25 09:07:58;;;;;;;124.18;35.42;;;1.60;99.90;;;;;;5101394;28;20041;-94
2022/01/25 09:10:25;;;;;;;119.13;33.53;;;1.60;99.90;;;;;;5100115;28;20431;-93
2022/01/25 09:12:51;;;;;;;122.35;35.38;;;1.60;99.90;;;;;;5105909;28;20661;-93
2022/01/25 09:15:17;;;;;;;130.73;34.28;;;1.60;99.90;;;;;;5120593;28;20016;-94
2022/01/25 09:17:43;;;;;;;124.13;35.72;;;1.60;99.90;;;;;;5099389;28;20024;-93
2022/01/25 09:20:09;;;;;;;128.15;35.78;;;1.70;99.90;;;;;;5098323;28;20026;-92
2022/01/25 09:22:35;;;;;;;130.18;36.85;;;1.60;99.90;;;;;;5098188;28;20019;-93
2022/01/25 09:25:01;;;;;;;127.32;38.05;;;1.60;99.90;;;;;;5098743;28;20020;-94
2022/01/25 09:27:27;;;;;;;133.80;38.40;;;1.60;99.90;;;;;;5099479;28;20114;-93
2022/01/25 09:29:53;;;;;;;123.05;38.72;;;1.50;99.90;;;;;;5101372;28;20020;-95
2022/01/25 09:32:20;;;;;;;143.80;44.10;;;1.50;99.90;;;;;;5100658;28;20201;-94
2022/01/25 09:34:46;;;;;;;134.70;40.63;;;1.50;99.90;;;;;;5105089;28;20058;-93
2022/01/25 09:37:13;;;;;;;142.77;41.42;;;1.40;99.90;;;;;;5106621;28;20481;-92
2022/01/25 09:39:38;;;;;;;147.23;45.80;;;1.40;99.90;;;;;;5099342;28;20052;-92
2022/01/25 09:42:08;;;;;;;135.75;43.15;;;1.40;99.90;;;;;;5092549;28;20434;-94
2022/01/25 09:44:37;;;;;;;139.17;41.60;;;1.40;99.90;;;;;;5086228;28;20019;-93
2022/01/25 09:47:03;;;;;;;128.77;41.10;;;1.40;99.90;;;;;;5095515;28;20635;-92
2022/01/25 09:49:31;;;;;;;133.20;41.72;;;1.40;99.90;;;;;;5090441;28;20047;-92
2022/01/25 09:52:04;;;;;;;145.10;42.53;;;1.40;99.90;;;;;;5097407;28;20044;-93
2022/01/25 09:54:31;;;;;;;129.20;39.10;;;1.40;99.90;;;;;;5090826;28;20023;-92
2022/01/25 09:56:57;;;;;;;132.43;41.40;;;1.40;99.90;;;;;;5088119;28;20077;-94
2022/01/25 09:59:26;;;;;;;124.55;37.28;;;1.40;99.90;;;;;;5087566;28;20073;-93
2022/01/25 10:01:52;;;;;;;119.35;39.88;;;1.40;99.90;;;;;;5089670;28;20024;-93
2022/01/25 10:04:41;;;;;;;116.10;38.63;;;1.30;99.90;;;;;;5080231;28;20031;-93
2022/01/25 10:07:08;;;;;;;115.40;35.38;;;1.40;99.90;;;;;;5092007;28;20024;-93
2022/01/25 10:09:55;;;;;;;106.80;37.08;;;1.40;99.90;;;;;;5092645;28;20012;-92
2022/01/25 10:12:23;;;;;;;123.65;38.47;;;1.40;99.90;;;;;;5105871;28;20044;-92
2022/01/25 10:15:09;;;;;;;104.57;37.25;;;1.40;99.90;;;;;;5101300;28;20035;-92
2022/01/25 10:17:37;;;;;;;121.95;40.03;;;1.40;99.90;;;;;;5101757;28;20028;-95
2022/01/25 10:20:04;;;;;;;117.10;38.05;;;1.40;99.90;;;;;;5105177;28;20032;-93
2022/01/25 10:22:46;;;;;;;129.57;40.70;;;1.40;99.90;;;;;;5098455;28;20026;-94
2022/01/25 10:25:12;;;;;;;123.88;40.85;;;1.40;99.90;;;;;;5095468;28;20103;-91
2022/01/25 10:28:06;;;;;;;107.05;36.25;;;1.50;99.90;;;;;;5100160;28;20048;-91
2022/01/25 10:30:39;;;;;;;106.47;34.95;;;1.50;99.90;;;;;;5109150;28;20028;-93
2022/01/25 10:33:38;;;;;;;97.93;33.95;;;1.50;99.90;;;;;;5089198;28;20036;-93
2022/01/25 10:36:14;;;;;;;107.82;36.30;;;1.50;99.90;;;;;;5085761;28;20555;-94
2022/01/25 10:38:42;;;;;;;103.35;33.20;;;1.60;99.90;;;;;;5098411;28;20033;-93
2022/01/25 10:41:10;;;;;;;116.05;38.60;;;1.50;99.90;;;;;;5119281;28;20024;-94
2022/01/25 10:43:38;;;;;;;100.95;33.35;;;1.60;99.90;;;;;;5115878;28;20016;-93
2022/01/25 10:46:29;;;;;;;111.30;38.78;;;1.60;99.90;;;;;;5094889;28;20019;-95
2022/01/25 10:49:06;;;;;;;103.57;33.05;;;1.60;99.90;;;;;;5100728;28;20020;-94
2022/01/25 10:51:45;;;;;;;111.25;35.20;;;1.50;99.90;;;;;;5135596;28;20025;-94
2022/01/25 10:54:40;;;;;;;94.93;31.08;;;1.50;99.90;;;;;;5114125;28;20033;-93
2022/01/25 10:57:20;;;;;;;102.32;33.55;;;1.60;99.90;;;;;;5101064;28;20035;-94
2022/01/25 11:00:42;;;;;;;91.55;32.10;;;1.60;99.90;;;;;;5094633;28;20032;-93
2022/01/25 11:03:09;;;;;;;100.78;34.17;;;1.60;99.90;;;;;;5096986;28;20028;-93
2022/01/25 11:05:41;;;;;;;106.68;36.13;;;1.60;99.90;;;;;;5099903;28;20015;-94
2022/01/25 11:08:19;;;;;;;117.43;39.72;;;1.60;99.90;;;;;;5092625;28;20033;-93
2022/01/25 11:10:51;;;;;;;105.60;33.45;;;1.60;99.90;;;;;;5099251;28;20111;-95
2022/01/25 11:16:02;;;;;;;92.03;30.77;;;1.70;99.90;;;;;;5109687;28;20028;-92
2022/01/25 11:18:31;;;;;;;95.03;32.13;;;1.70;99.90;;;;;;5086547;28;20444;-92
2022/01/25 11:20:59;;;;;;;96.10;31.00;;;1.70;99.90;;;;;;5089728;28;20023;-91
2022/01/25 11:23:28;;;;;;;86.85;29.63;;;1.70;99.90;;;;;;5091700;28;20020;-93
2022/01/25 11:25:55;;;;;;;92.10;28.30;;;1.80;99.90;;;;;;5088100;28;20024;-94
2022/01/25 11:28:22;;;;;;;93.95;31.50;;;1.70;99.90;;;;;;5090907;28;20037;-93
2022/01/25 11:30:51;;;;;;;93.78;28.95;;;1.70;99.90;;;;;;5089368;28;20039;-93
2022/01/25 11:33:19;;;;;;;81.18;28.15;;;1.70;99.90;;;;;;5098931;28;20043;-94
2022/01/25 11:35:45;;;;;;;89.30;30.52;;;1.80;99.90;;;;;;5095803;28;20056;-92
2022/01/25 11:38:12;;;;;;;85.30;29.15;;;1.80;99.90;;;;;;5095553;28;20012;-94
2022/01/25 11:40:47;;;;;;;81.93;28.17;;;1.80;99.90;;;;;;5090804;28;20020;-94
2022/01/25 11:43:16;;;;;;;90.53;29.98;;;1.80;99.90;;;;;;5085758;28;20020;-94
2022/01/25 11:45:50;;;;;;;84.70;26.73;;;1.80;99.90;;;;;;5087162;28;20020;-91
2022/01/25 11:48:43;;;;;;;92.60;28.42;;;1.80;99.90;;;;;;5083030;28;20043;-92
2022/01/25 11:51:15;;;;;;;91.70;29.13;;;1.90;99.90;;;;;;5091244;28;20039;-91
2022/01/25 11:53:44;;;;;;;86.30;25.90;;;1.90;99.90;;;;;;5086128;28;20012;-93
2022/01/25 11:56:11;;;;;;;80.60;26.40;;;1.90;99.90;;;;;;5088888;28;20024;-91
2022/01/25 11:58:38;;;;;;;86.28;28.67;;;1.90;99.90;;;;;;5087011;28;20480;-93
2022/01/25 12:01:54;;;;;;;87.82;28.00;;;2.00;99.90;;;;;;5090756;28;20020;-92
2022/01/25 12:04:20;;;;;;;78.70;26.17;;;2.00;99.90;;;;;;5086788;28;20016;-94
2022/01/25 12:06:59;;;;;;;79.55;25.90;;;2.00;99.90;;;;;;5089781;28;20058;-93
2022/01/25 12:09:42;;;;;;;86.63;27.63;;;2.00;99.90;;;;;;5097701;28;20012;-91
2022/01/25 12:12:13;;;;;;;80.55;24.13;;;2.10;99.90;;;;;;5095159;28;20533;-93
2022/01/25 12:14:55;;;;;;;82.22;26.88;;;2.10;99.90;;;;;;5093088;28;20143;-91
2022/01/25 12:17:24;;;;;;;80.80;25.38;;;2.10;99.90;;;;;;5090390;28;20020;-94
2022/01/25 12:19:53;;;;;;;81.78;29.23;;;2.00;99.90;;;;;;5093903;28;20385;-92
2022/01/25 12:22:40;;;;;;;77.63;26.37;;;2.00;99.90;;;;;;5093837;28;20019;-95
2022/01/25 12:25:31;;;;;;;83.40;28.52;;;2.00;99.90;;;;;;5087276;28;20266;-95
2022/01/25 12:28:00;;;;;;;78.95;27.25;;;2.00;99.90;;;;;;5106493;28;20091;-94
2022/01/25 12:30:25;;;;;;;73.68;24.75;;;2.00;99.90;;;;;;5086619;28;20019;-94
2022/01/25 12:33:05;;;;;;;80.85;27.10;;;2.00;99.90;;;;;;5090811;28;20480;-95
2022/01/25 12:36:09;;;;;;;74.78;25.88;;;2.00;99.90;;;;;;5086995;28;20036;-94
2022/01/25 12:38:38;;;;;;;72.03;25.83;;;2.10;99.90;;;;;;5081947;28;20040;-91
2022/01/25 12:41:10;;;;;;;72.75;23.85;;;2.10;99.90;;;;;;5085591;28;20012;-94
2022/01/25 12:43:41;;;;;;;73.35;25.63;;;2.10;99.90;;;;;;5088971;28;20032;-94
2022/01/25 12:46:09;;;;;;;;;;;2.10;99.90;;;;;;5087721;28;20023;-94
2022/01/25 12:48:42;;;;;;;75.50;25.85;;;2.10;99.90;;;;;;5091444;28;20365;-95
2022/01/25 12:51:10;;;;;;;79.32;28.33;;;2.10;99.90;;;;;;5091802;28;20052;-93
2022/01/25 12:53:50;;;;;;;;;;;;;;;;;;;;;
2022/01/25 12:56:22;;;;;;;76.53;26.33;;;2.10;99.90;;;;;;5103865;28;20127;-93
2022/01/25 12:58:54;;;;;;;68.53;23.98;;;2.10;99.90;;;;;;5088127;28;20036;-94
2022/01/25 13:01:22;;;;;;;61.63;23.55;;;2.20;99.90;;;;;;5089321;28;20477;-93
2022/01/25 13:03:52;;;;;;;67.22;21.65;;;2.20;99.90;;;;;;5088311;28;20508;-94
2022/01/25 13:06:22;;;;;;;69.03;24.60;;;2.20;99.90;;;;;;5088207;28;20038;-94
2022/01/25 13:09:01;;;;;;;65.32;23.23;;;2.20;99.90;;;;;;5093133;28;20035;-93
2022/01/25 13:17:01;;;;;;;74.40;24.27;;;2.30;99.90;;;;;;5113793;28;20134;-94
2022/01/25 13:19:37;;;;;;;75.72;23.48;;;2.30;99.90;;;;;;5094048;28;20026;-94
2022/01/25 13:22:09;;;;;;;67.30;23.45;;;2.30;99.90;;;;;;5091510;28;20020;-93
2022/01/25 13:24:47;;;;;;;61.63;22.17;;;2.30;99.90;;;;;;5090983;28;20048;-94
2022/01/25 13:27:16;;;;;;;69.28;24.83;;;2.30;99.90;;;;;;5090822;28;20042;-93
2022/01/25 13:32:40;;;;;;;66.05;22.77;;;2.30;99.90;;;;;;5108149;28;20051;-94
2022/01/25 13:35:16;;;;;;;71.82;23.70;;;2.30;99.90;;;;;;5089844;28;20051;-95
2022/01/25 13:37:43;;;;;;;56.58;20.38;;;2.30;99.90;;;;;;5090549;28;20028;-93
2022/01/25 13:40:12;;;;;;;65.43;22.13;;;2.30;99.90;;;;;;5099013;28;20024;-93
2022/01/25 13:42:56;;;;;;;63.47;21.75;;;2.30;99.90;;;;;;5097563;28;20020;-94
2022/01/25 13:48:09;;;;;;;64.30;20.52;;;2.30;99.90;;;;;;5110036;28;20023;-94
2022/01/25 13:50:37;;;;;;;50.42;17.98;;;2.30;99.90;;;;;;5094749;28;20035;-94
2022/01/25 13:53:05;;;;;;;61.38;21.60;;;2.30;99.90;;;;;;5073030;28;20093;-93
2022/01/25 13:55:31;;;;;;;58.10;19.80;;;2.30;99.90;;;;;;5088950;28;20052;-93
2022/01/25 13:57:57;;;;;;;61.65;20.10;;;2.30;99.90;;;;;;5091889;28;20036;-93
2022/01/25 14:00:24;;;;;;;56.00;20.25;;;2.30;99.90;;;;;;5093380;28;20012;-93
2022/01/25 14:02:53;;;;;;;53.17;19.30;;;2.30;99.90;;;;;;5088726;28;20024;-93
2022/01/25 14:05:22;;;;;;;50.47;17.65;;;2.30;99.90;;;;;;5089468;28;20133;-93
2022/01/25 14:07:54;;;;;;;58.33;19.58;;;2.30;99.90;;;;;;5089679;28;20043;-94
2022/01/25 14:10:26;;;;;;;53.72;16.98;;;2.30;99.90;;;;;;5093241;28;20012;-95
2022/01/25 14:23:56;;;;;;;54.08;17.45;;;2.10;99.90;;;;;;5107605;28;20061;-94
2022/01/25 14:26:28;;;;;;;56.47;17.35;;;2.10;99.90;;;;;;5090724;28;20468;-94
2022/01/25 14:29:02;;;;;;;51.80;18.10;;;2.20;99.90;;;;;;5093179;28;20388;-95
2022/01/25 14:31:28;;;;;;;62.75;17.83;;;2.10;99.90;;;;;;5093923;28;20035;-94
2022/01/25 14:33:53;;;;;;;51.25;16.05;;;2.20;99.90;;;;;;5092406;28;20366;-95
2022/01/25 14:36:21;;;;;;;53.63;17.42;;;2.20;99.90;;;;;;5090623;28;20035;-94
2022/01/25 14:38:47;;;;;;;48.50;16.83;;;2.20;99.90;;;;;;5097945;28;20081;-93
2022/01/25 14:41:13;;;;;;;51.33;16.50;;;2.20;99.90;;;;;;5095392;28;20119;-92
2022/01/25 14:43:51;;;;;;;51.08;16.77;;;2.20;99.90;;;;;;5099331;28;20027;-94
2022/01/25 14:46:26;;;;;;;44.95;14.93;;;2.30;99.90;;;;;;5109233;28;20020;-93
2022/01/25 14:49:07;;;;;;;50.38;16.10;;;2.30;99.90;;;;;;5126741;27;20095;-95
2022/01/25 14:51:37;;;;;;;56.83;17.92;;;2.30;99.90;;;;;;5098234;28;20039;-95
2022/01/25 14:54:10;;;;;;;52.08;15.85;;;2.40;99.90;;;;;;5092173;28;20020;-93
2022/01/25 14:56:46;;;;;;;50.53;15.55;;;2.40;99.90;;;;;;5095988;28;20032;-91
2022/01/25 14:59:23;;;;;;;49.28;17.50;;;2.40;99.90;;;;;;5095614;28;20028;-93
2022/01/25 15:02:10;;;;;;;49.20;14.95;;;2.50;99.90;;;;;;5093795;28;20042;-94